Time;durP1;ratioP1;P1;durP2;ratioP2;P2;SDS_P1;SDS_P2;PMS_P1;PMS_P2;Temp;Humidity;BMP_temperature;BMP_pressure;BME280_temperature;BME280_humidity;BME280_pressure;Samples;Min_cycle;Max_cycle;Signal;HPM_P1;HPM_P2
2022/04/27 00:00:31;;;;;;;75.47;51.42;;;16.80;55.70;;;;;;4922349;28;90724;-66
2022/04/27 00:02:57;;;;;;;77.45;51.63;;;16.80;55.70;;;;;;4919676;28;91331;-66
2022/04/27 00:05:24;;;;;;;75.13;51.33;;;16.80;55.80;;;;;;4926336;28;91035;-66
2022/04/27 00:07:50;;;;;;;76.65;51.08;;;16.80;55.60;;;;;;4935303;28;91508;-66
2022/04/27 00:10:18;;;;;;;75.60;51.53;;;16.80;55.70;;;;;;4921425;28;89197;-66
2022/04/27 00:12:45;;;;;;;74.90;51.03;;;16.80;55.70;;;;;;4933777;28;91284;-66
2022/04/27 00:15:11;;;;;;;76.28;51.45;;;16.80;55.70;;;;;;4922370;28;92368;-66
2022/04/27 00:17:37;;;;;;;76.30;51.05;;;16.80;55.70;;;;;;4918881;28;92088;-66
2022/04/27 00:20:03;;;;;;;75.65;51.38;;;16.80;55.70;;;;;;4920234;28;90333;-66
2022/04/27 00:22:29;;;;;;;75.93;51.03;;;16.80;56.20;;;;;;4920755;28;91930;-68
2022/04/27 00:25:00;;;;;;;75.70;51.10;;;16.80;55.70;;;;;;4931769;28;90401;-66
2022/04/27 00:27:27;;;;;;;76.35;51.30;;;16.80;55.60;;;;;;4917249;28;89525;-66
2022/04/27 00:29:52;;;;;;;75.28;51.30;;;16.70;55.50;;;;;;4926492;28;89670;-66
2022/04/27 00:32:18;;;;;;;74.72;51.08;;;16.70;55.60;;;;;;4932294;28;90646;-66
2022/04/27 00:34:43;;;;;;;75.10;51.03;;;16.70;55.60;;;;;;4929361;28;91359;-66
2022/04/27 00:37:09;;;;;;;75.78;51.45;;;16.70;55.70;;;;;;4925666;28;89929;-67
2022/04/27 00:39:35;;;;;;;74.60;51.10;;;16.70;55.80;;;;;;4931105;28;90082;-66
2022/04/27 00:42:19;;;;;;;75.68;51.42;;;16.70;55.70;;;;;;4932682;28;91689;-66
2022/04/27 00:44:46;;;;;;;75.10;51.33;;;16.70;55.70;;;;;;4926370;28;89725;-67
2022/04/27 00:47:13;;;;;;;75.65;51.53;;;16.70;55.70;;;;;;4922568;28;90129;-67
2022/04/27 00:49:45;;;;;;;74.97;51.05;;;16.70;55.70;;;;;;4920972;28;90756;-67
2022/04/27 00:52:12;;;;;;;74.18;50.97;;;16.70;55.70;;;;;;4922763;28;93645;-67
2022/04/27 00:54:46;;;;;;;75.97;51.13;;;16.70;55.70;;;;;;4921545;28;93469;-66
2022/04/27 00:57:12;;;;;;;76.65;51.72;;;16.70;55.70;;;;;;4932649;28;89950;-66
2022/04/27 00:59:39;;;;;;;76.20;51.30;;;16.70;55.70;;;;;;4935095;28;89051;-66
2022/04/27 01:02:05;;;;;;;75.68;50.97;;;16.70;55.60;;;;;;4921414;28;91070;-67
2022/04/27 01:04:35;;;;;;;75.60;51.80;;;16.70;55.80;;;;;;4920343;28;90698;-66
2022/04/27 01:07:02;;;;;;;75.00;51.13;;;16.60;55.70;;;;;;4922731;28;96906;-66
2022/04/27 01:09:32;;;;;;;75.18;51.22;;;16.60;55.70;;;;;;4920515;28;90098;-66
2022/04/27 01:11:58;;;;;;;75.07;51.33;;;16.60;55.60;;;;;;4914621;28;90176;-67
2022/04/27 01:14:25;;;;;;;74.57;50.90;;;16.60;55.70;;;;;;4932160;28;90038;-66
2022/04/27 01:16:52;;;;;;;76.55;51.63;;;16.60;55.70;;;;;;4930889;28;91608;-66
2022/04/27 01:19:18;;;;;;;75.15;51.72;;;16.60;55.70;;;;;;4925496;28;89987;-67
2022/04/27 01:21:44;;;;;;;75.47;51.65;;;16.60;55.70;;;;;;4916510;28;92666;-66
2022/04/27 01:24:11;;;;;;;76.40;51.78;;;16.60;55.70;;;;;;4921410;28;91622;-66
2022/04/27 01:26:37;;;;;;;73.57;51.03;;;16.60;55.70;;;;;;4924104;28;90761;-66
2022/04/27 01:29:04;;;;;;;75.07;51.40;;;16.60;55.70;;;;;;4917056;28;90275;-66
2022/04/27 01:31:30;;;;;;;74.38;51.13;;;16.60;55.70;;;;;;4924860;28;91808;-66
2022/04/27 01:33:56;;;;;;;75.68;51.83;;;16.60;55.80;;;;;;4914742;28;92759;-66
2022/04/27 01:36:22;;;;;;;75.90;51.70;;;16.60;55.60;;;;;;4929349;28;89604;-66
2022/04/27 01:38:48;;;;;;;75.95;50.83;;;16.60;55.70;;;;;;4914139;28;89972;-65
2022/04/27 01:41:14;;;;;;;74.35;51.22;;;16.60;55.70;;;;;;4922935;28;90111;-66
2022/04/27 01:43:40;;;;;;;74.50;51.25;;;16.50;55.70;;;;;;4902350;28;90574;-66
2022/04/27 01:46:06;;;;;;;74.63;51.40;;;16.50;55.80;;;;;;4906573;28;95684;-66
2022/04/27 01:48:32;;;;;;;75.03;51.78;;;16.60;55.80;;;;;;4922906;28;88903;-67
2022/04/27 01:50:58;;;;;;;74.40;51.47;;;16.50;55.70;;;;;;4924456;28;94010;-67
2022/04/27 01:56:08;;;;;;;75.82;51.67;;;16.50;55.70;;;;;;4926923;28;91100;-66
2022/04/27 01:58:34;;;;;;;76.20;51.22;;;16.50;55.80;;;;;;4899944;28;92330;-66
2022/04/27 02:01:00;;;;;;;73.70;51.00;;;16.50;55.70;;;;;;4918018;28;91189;-66
2022/04/27 02:03:26;;;;;;;76.95;51.95;;;16.50;55.60;;;;;;4915027;28;90354;-65
2022/04/27 02:05:52;;;;;;;74.07;51.00;;;16.50;55.80;;;;;;4916217;28;94618;-66
2022/04/27 02:08:19;;;;;;;73.53;50.75;;;16.50;55.80;;;;;;4914605;28;94627;-66
2022/04/27 02:10:45;;;;;;;74.40;51.47;;;16.50;55.80;;;;;;4917854;28;90182;-66
2022/04/27 02:13:11;;;;;;;75.68;51.47;;;16.50;55.80;;;;;;4916788;28;92240;-66
2022/04/27 02:15:38;;;;;;;74.50;51.03;;;16.50;55.80;;;;;;4923821;28;90054;-66
2022/04/27 02:18:04;;;;;;;74.68;51.28;;;16.50;55.80;;;;;;4915280;28;90616;-66
2022/04/27 02:20:31;;;;;;;75.07;51.45;;;16.40;55.70;;;;;;4915258;28;91617;-66
2022/04/27 02:22:57;;;;;;;75.32;51.50;;;16.40;55.80;;;;;;4920852;28;89816;-66
2022/04/27 02:25:22;;;;;;;75.85;51.15;;;16.40;55.80;;;;;;4916108;28;91165;-66
2022/04/27 02:27:52;;;;;;;74.97;51.15;;;16.40;55.80;;;;;;4915387;28;94498;-66
2022/04/27 02:30:18;;;;;;;74.43;51.35;;;16.40;55.80;;;;;;4916554;28;91740;-66
2022/04/27 02:32:45;;;;;;;77.03;51.17;;;16.40;56.50;;;;;;4916518;28;89913;-66
2022/04/27 02:35:12;;;;;;;74.82;51.33;;;16.40;55.90;;;;;;4921098;28;90255;-66
2022/04/27 02:37:38;;;;;;;73.95;51.13;;;16.40;55.90;;;;;;4923776;28;90387;-66
2022/04/27 02:40:05;;;;;;;74.88;51.45;;;16.40;55.90;;;;;;4917621;28;91033;-67
2022/04/27 02:42:31;;;;;;;75.88;52.05;;;16.40;55.90;;;;;;4926971;28;92486;-66
2022/04/27 02:44:58;;;;;;;74.97;51.63;;;16.30;55.90;;;;;;4916019;28;90933;-66
2022/04/27 02:47:23;;;;;;;75.15;51.50;;;16.30;55.90;;;;;;4907476;28;91674;-66
2022/04/27 02:52:33;;;;;;;75.45;51.80;;;16.30;55.90;;;;;;4905892;28;90329;-66
2022/04/27 02:54:59;;;;;;;75.57;51.58;;;16.30;55.90;;;;;;4909679;28;91765;-67
2022/04/27 02:57:25;;;;;;;73.60;51.17;;;16.30;55.90;;;;;;4923429;28;90187;-67
2022/04/27 02:59:51;;;;;;;74.75;51.20;;;16.30;56.00;;;;;;4916690;28;93255;-66
2022/04/27 03:02:17;;;;;;;73.78;51.17;;;16.30;55.90;;;;;;4928776;28;90243;-66
2022/04/27 03:04:42;;;;;;;73.75;51.28;;;16.30;55.90;;;;;;4914178;28;90423;-66
2022/04/27 03:07:08;;;;;;;73.78;51.40;;;16.30;56.00;;;;;;4922728;28;92367;-66
2022/04/27 03:09:34;;;;;;;73.85;51.28;;;16.30;56.10;;;;;;4912604;28;91111;-66
2022/04/27 03:12:00;;;;;;;73.43;51.08;;;16.30;56.10;;;;;;4913954;28;91955;-66
2022/04/27 03:14:28;;;;;;;73.72;51.28;;;16.30;55.90;;;;;;4922654;28;91323;-66
2022/04/27 03:16:54;;;;;;;75.13;51.67;;;16.30;56.00;;;;;;4923973;28;90058;-66
2022/04/27 03:19:20;;;;;;;74.90;51.60;;;16.30;56.00;;;;;;4922475;28;90440;-66
2022/04/27 03:21:46;;;;;;;74.05;51.08;;;16.20;56.00;;;;;;4920281;28;90809;-68
2022/04/27 03:24:12;;;;;;;76.20;51.35;;;16.20;55.90;;;;;;4930253;28;90312;-66
2022/04/27 03:26:38;;;;;;;75.05;51.35;;;16.20;56.00;;;;;;4933141;28;89529;-66
2022/04/27 03:29:04;;;;;;;75.20;51.47;;;16.20;55.90;;;;;;4914993;28;94777;-65
2022/04/27 03:31:31;;;;;;;74.07;51.47;;;16.20;56.00;;;;;;4925058;28;91074;-65
2022/04/27 03:33:56;;;;;;;73.40;51.35;;;16.20;56.00;;;;;;4928731;28;92730;-66
2022/04/27 03:36:22;;;;;;;73.78;51.28;;;16.20;56.10;;;;;;4922822;28;93490;-66
2022/04/27 03:38:48;;;;;;;73.57;51.10;;;16.20;56.00;;;;;;4918620;28;93901;-66
2022/04/27 03:41:19;;;;;;;73.95;51.40;;;16.10;56.00;;;;;;4927462;28;90975;-66
2022/04/27 03:43:45;;;;;;;74.28;51.25;;;16.20;56.00;;;;;;4922309;28;90426;-66
2022/04/27 03:46:10;;;;;;;73.68;51.42;;;16.20;56.10;;;;;;4928019;28;90315;-68
2022/04/27 03:48:36;;;;;;;74.93;51.53;;;16.20;56.10;;;;;;4928791;28;90284;-66
2022/04/27 03:51:02;;;;;;;75.10;51.85;;;16.10;56.00;;;;;;4925532;28;90197;-67
2022/04/27 03:53:27;;;;;;;74.03;51.42;;;16.10;56.00;;;;;;4926070;28;89840;-66
2022/04/27 03:55:53;;;;;;;74.72;51.90;;;16.10;56.10;;;;;;4911581;28;89804;-66
2022/04/27 03:58:19;;;;;;;76.18;50.95;;;16.10;56.10;;;;;;4910031;28;92686;-66
2022/04/27 04:00:45;;;;;;;74.25;51.28;;;16.10;56.00;;;;;;4913594;28;91610;-66
2022/04/27 04:03:13;;;;;;;74.07;51.53;;;16.10;56.20;;;;;;4923869;28;90858;-66
2022/04/27 04:05:39;;;;;;;74.70;51.60;;;16.10;56.10;;;;;;4927791;28;89482;-66
2022/04/27 04:08:06;;;;;;;72.97;51.00;;;16.10;56.10;;;;;;4918743;28;90030;-66
2022/04/27 04:10:31;;;;;;;74.57;51.55;;;16.00;56.10;;;;;;4921291;28;92318;-66
2022/04/27 04:12:57;;;;;;;74.28;51.33;;;16.10;56.10;;;;;;4920754;28;90628;-66
2022/04/27 04:15:23;;;;;;;74.30;51.75;;;16.10;56.10;;;;;;4917300;28;95581;-66
2022/04/27 04:17:49;;;;;;;75.88;51.53;;;16.10;56.10;;;;;;4927281;28;90172;-66
2022/04/27 04:20:17;;;;;;;75.80;52.13;;;16.10;56.20;;;;;;4925830;28;92318;-67
2022/04/27 04:22:44;;;;;;;74.88;51.70;;;16.10;56.10;;;;;;4921624;28;92302;-66
2022/04/27 04:30:39;;;;;;;75.03;52.05;;;16.00;56.20;;;;;;4921449;28;92235;-66
2022/04/27 04:33:05;;;;;;;74.47;51.63;;;16.00;56.10;;;;;;4913596;28;93050;-67
2022/04/27 04:35:31;;;;;;;75.75;51.97;;;16.00;56.10;;;;;;4925876;28;94489;-66
2022/04/27 04:37:56;;;;;;;75.80;52.05;;;16.00;56.20;;;;;;4929130;28;89976;-66
2022/04/27 04:40:22;;;;;;;73.63;50.95;;;16.00;56.80;;;;;;4927765;28;89562;-66
2022/04/27 04:42:48;;;;;;;74.65;51.92;;;16.00;56.10;;;;;;4920158;28;90583;-65
2022/04/27 04:45:14;;;;;;;76.40;52.10;;;16.00;56.10;;;;;;4904621;28;91958;-66
2022/04/27 04:47:42;;;;;;;76.40;51.97;;;16.00;56.20;;;;;;4912531;28;91079;-66
2022/04/27 04:50:08;;;;;;;75.53;52.47;;;16.00;56.20;;;;;;4925548;28;90504;-66
2022/04/27 04:52:34;;;;;;;73.72;51.55;;;16.00;56.10;;;;;;4920180;28;89644;-66
2022/04/27 04:55:00;;;;;;;73.93;51.55;;;16.00;56.10;;;;;;4919129;28;89646;-66
2022/04/27 04:57:26;;;;;;;75.22;52.15;;;16.00;56.20;;;;;;4908990;28;93728;-66
2022/04/27 04:59:51;;;;;;;76.70;52.45;;;16.00;56.10;;;;;;4903209;28;90940;-65
2022/04/27 05:02:17;;;;;;;75.50;52.13;;;16.00;56.10;;;;;;4918253;28;90061;-65
2022/04/27 05:04:43;;;;;;;73.75;51.17;;;16.00;56.00;;;;;;4923500;28;88877;-65
2022/04/27 05:07:09;;;;;;;74.50;52.00;;;15.90;56.00;;;;;;4908240;28;92136;-65
2022/04/27 05:09:34;;;;;;;74.43;51.38;;;15.90;56.10;;;;;;4925832;28;90241;-65
2022/04/27 05:12:00;;;;;;;73.97;51.75;;;15.90;56.00;;;;;;4915980;28;93238;-67
2022/04/27 05:14:26;;;;;;;75.80;52.67;;;15.90;56.10;;;;;;4911060;28;90829;-66
2022/04/27 05:16:52;;;;;;;74.20;51.92;;;15.90;56.00;;;;;;4910342;28;91553;-65
2022/04/27 05:19:17;;;;;;;76.68;51.95;;;15.90;56.10;;;;;;4912605;28;93407;-67
2022/04/27 05:21:43;;;;;;;76.53;52.35;;;15.90;56.30;;;;;;4913853;28;92629;-66
2022/04/27 05:24:09;;;;;;;77.90;53.47;;;15.90;56.30;;;;;;4908109;28;94807;-69
2022/04/27 05:26:34;;;;;;;80.38;54.55;;;15.90;57.00;;;;;;4914917;28;95781;-68
2022/04/27 05:32:00;;;;;;;87.40;53.97;;;16.00;57.80;;;;;;4920521;28;92794;-70
2022/04/27 05:34:30;;;;;;;87.72;53.80;;;16.10;58.90;;;;;;4928780;28;90281;-68
2022/04/27 05:36:56;;;;;;;79.65;53.40;;;16.10;58.80;;;;;;4921865;28;91124;-69
2022/04/27 05:39:22;;;;;;;83.82;54.92;;;16.10;58.70;;;;;;4921439;28;90335;-70
2022/04/27 05:41:52;;;;;;;89.05;55.35;;;16.10;58.90;;;;;;4926882;28;96325;-67
2022/04/27 05:44:22;;;;;;;90.28;55.70;;;16.10;59.00;;;;;;4919481;28;90110;-69
2022/04/27 05:46:48;;;;;;;93.47;55.58;;;16.10;58.90;;;;;;4924301;28;90972;-69
2022/04/27 05:49:14;;;;;;;92.38;56.05;;;16.10;59.10;;;;;;4917029;28;91349;-70
2022/04/27 05:51:40;;;;;;;86.85;55.70;;;16.20;59.40;;;;;;4914773;28;89945;-69
2022/04/27 05:54:05;;;;;;;94.60;55.90;;;16.10;58.70;;;;;;4921478;28;91123;-69
2022/04/27 05:56:31;;;;;;;89.18;55.83;;;16.10;58.60;;;;;;4922544;28;89760;-68
2022/04/27 05:58:57;;;;;;;96.30;56.83;;;16.10;58.30;;;;;;4928885;28;89904;-68
2022/04/27 06:01:23;;;;;;;98.68;56.45;;;16.20;58.40;;;;;;4919489;28;95063;-68
2022/04/27 06:03:49;;;;;;;96.97;56.85;;;16.30;58.10;;;;;;4926998;28;89906;-69
2022/04/27 06:06:15;;;;;;;92.32;55.83;;;16.50;58.20;;;;;;4927062;28;90817;-68
2022/04/27 06:08:41;;;;;;;91.78;56.25;;;16.50;57.90;;;;;;4914361;28;91742;-68
2022/04/27 06:11:06;;;;;;;94.13;56.13;;;16.50;58.30;;;;;;4933065;28;90632;-69
2022/04/27 06:13:32;;;;;;;86.85;55.65;;;16.50;58.00;;;;;;4929519;28;89833;-68
2022/04/27 06:15:58;;;;;;;91.63;56.17;;;16.60;58.20;;;;;;4923196;28;91980;-69
2022/04/27 06:18:23;;;;;;;87.97;55.90;;;16.60;58.30;;;;;;4921067;28;92361;-66
2022/04/27 06:20:52;;;;;;;86.90;56.20;;;16.60;58.50;;;;;;4929960;28;90209;-68
2022/04/27 06:23:17;;;;;;;88.82;55.35;;;16.60;58.30;;;;;;4923680;28;90350;-69
2022/04/27 06:25:47;;;;;;;91.95;55.42;;;16.70;57.70;;;;;;4903856;28;91611;-69
2022/04/27 06:28:13;;;;;;;86.45;55.28;;;16.70;57.50;;;;;;4921454;28;91955;-69
2022/04/27 06:30:39;;;;;;;92.60;55.72;;;16.80;57.90;;;;;;4925322;28;90533;-70
2022/04/27 06:33:05;;;;;;;89.13;55.30;;;16.80;58.00;;;;;;4916693;28;89449;-68
2022/04/27 06:35:31;;;;;;;90.32;55.63;;;16.80;58.00;;;;;;4932072;28;89805;-69
2022/04/27 06:37:57;;;;;;;86.93;55.90;;;16.90;58.10;;;;;;4933901;28;91385;-70
2022/04/27 06:40:24;;;;;;;95.22;55.63;;;16.90;57.80;;;;;;4928123;28;89840;-70
2022/04/27 06:42:51;;;;;;;93.97;55.92;;;17.00;57.70;;;;;;4915322;28;90881;-69
2022/04/27 06:45:16;;;;;;;88.30;56.15;;;17.00;57.90;;;;;;4919598;28;89891;-70
2022/04/27 06:47:42;;;;;;;86.80;56.10;;;17.00;57.70;;;;;;4924777;28;89899;-70
2022/04/27 06:50:12;;;;;;;85.68;55.03;;;17.10;57.40;;;;;;4920843;28;91613;-69
2022/04/27 06:52:41;;;;;;;88.70;55.55;;;17.10;57.00;;;;;;4917401;28;90846;-68
2022/04/27 06:55:08;;;;;;;89.18;56.33;;;17.20;56.90;;;;;;4927191;28;90656;-69
2022/04/27 06:57:34;;;;;;;86.20;56.38;;;17.20;56.70;;;;;;4915120;28;92068;-69
2022/04/27 07:00:00;;;;;;;89.25;55.75;;;17.30;56.60;;;;;;4924041;28;89875;-76
2022/04/27 07:02:27;;;;;;;75.70;54.78;;;17.30;56.40;;;;;;4924153;28;89781;-68
2022/04/27 07:04:59;;;;;;;78.68;54.90;;;17.40;56.60;;;;;;4919144;28;90823;-68
2022/04/27 07:07:25;;;;;;;73.07;53.92;;;17.40;56.40;;;;;;4919041;28;89151;-68
2022/04/27 07:09:52;;;;;;;78.78;54.45;;;17.50;56.50;;;;;;4922124;28;92063;-67
2022/04/27 07:12:18;;;;;;;77.65;54.45;;;17.50;56.50;;;;;;4932456;28;89913;-67
2022/04/27 07:14:45;;;;;;;75.32;53.88;;;17.50;56.50;;;;;;4911102;28;92003;-68
2022/04/27 07:17:10;;;;;;;83.63;53.80;;;17.60;56.40;;;;;;4919244;28;90747;-67
2022/04/27 07:19:36;;;;;;;75.65;53.90;;;17.60;56.40;;;;;;4927464;28;89747;-67
2022/04/27 07:22:02;;;;;;;77.32;54.53;;;17.70;56.30;;;;;;4936294;28;89743;-68
2022/04/27 07:24:28;;;;;;;130.18;59.72;;;17.70;56.10;;;;;;4931561;28;94748;-69
2022/04/27 07:26:55;;;;;;;83.20;54.25;;;17.80;56.10;;;;;;4916355;28;90563;-70
2022/04/27 07:29:21;;;;;;;76.95;54.20;;;17.80;55.70;;;;;;4909345;28;90726;-70
2022/04/27 07:31:46;;;;;;;76.80;54.33;;;17.90;55.30;;;;;;4925443;28;91649;-69
2022/04/27 07:34:13;;;;;;;81.47;54.63;;;17.90;54.90;;;;;;4926176;28;90765;-69
2022/04/27 07:36:39;;;;;;;85.68;54.45;;;18.00;54.80;;;;;;4924888;28;91133;-69
2022/04/27 07:39:05;;;;;;;76.90;53.65;;;18.00;54.50;;;;;;4928744;28;90804;-71
2022/04/27 07:41:32;;;;;;;80.97;54.42;;;18.00;54.60;;;;;;4924501;28;90126;-69
2022/04/27 07:43:57;;;;;;;75.20;53.90;;;18.00;54.30;;;;;;4916905;28;89916;-69
2022/04/27 07:46:23;;;;;;;78.85;53.55;;;18.10;54.10;;;;;;4931469;28;89765;-69
2022/04/27 07:48:51;;;;;;;77.40;53.05;;;18.10;54.30;;;;;;4918891;28;90306;-72
2022/04/27 07:51:17;;;;;;;76.60;53.22;;;18.20;54.20;;;;;;4925902;28;90619;-69
2022/04/27 07:53:43;;;;;;;74.97;53.42;;;18.20;54.00;;;;;;4915945;28;92542;-69
2022/04/27 07:56:08;;;;;;;76.25;53.20;;;18.20;53.80;;;;;;4928387;28;92545;-69
2022/04/27 07:58:34;;;;;;;73.38;53.35;;;18.20;53.90;;;;;;4908291;28;90504;-69
2022/04/27 08:01:00;;;;;;;75.00;53.10;;;18.30;54.00;;;;;;4924566;28;90604;-69
2022/04/27 08:03:26;;;;;;;78.00;52.58;;;18.30;54.10;;;;;;4904416;28;91311;-69
2022/04/27 08:05:52;;;;;;;72.90;52.80;;;18.30;54.30;;;;;;4921234;28;91173;-70
2022/04/27 08:08:18;;;;;;;71.28;52.63;;;18.30;54.00;;;;;;4901686;28;92934;-69
2022/04/27 08:10:43;;;;;;;82.35;52.60;;;18.30;54.20;;;;;;4891121;28;91383;-70
2022/04/27 08:13:09;;;;;;;74.55;52.60;;;18.40;53.90;;;;;;4897921;28;90012;-70
2022/04/27 08:15:35;;;;;;;79.18;53.45;;;18.40;53.80;;;;;;4889979;28;89746;-70
2022/04/27 08:18:03;;;;;;;76.05;52.67;;;18.50;54.20;;;;;;4898250;28;95011;-71
2022/04/27 08:23:29;;;;;;;75.40;52.45;;;18.50;53.60;;;;;;4895254;28;90692;-71
2022/04/27 08:25:57;;;;;;;76.38;52.47;;;18.50;53.40;;;;;;4894444;28;92704;-69
2022/04/27 08:28:23;;;;;;;76.20;52.45;;;18.50;53.30;;;;;;4907841;28;91172;-70
2022/04/27 08:30:50;;;;;;;75.63;51.75;;;18.50;53.10;;;;;;4901263;28;90946;-70
2022/04/27 08:33:17;;;;;;;75.95;52.00;;;18.60;53.00;;;;;;4902840;28;90481;-71
2022/04/27 08:35:43;;;;;;;74.68;52.13;;;18.50;53.20;;;;;;4905153;28;90072;-71
2022/04/27 08:38:10;;;;;;;74.63;51.78;;;18.60;53.20;;;;;;4887296;28;92889;-70
2022/04/27 08:40:41;;;;;;;71.45;51.97;;;18.60;53.10;;;;;;4898393;28;90266;-71
2022/04/27 08:43:09;;;;;;;73.47;51.95;;;18.70;53.40;;;;;;4909694;28;90072;-72
2022/04/27 08:45:36;;;;;;;74.38;52.35;;;18.70;53.60;;;;;;4903509;28;90464;-70
2022/04/27 08:48:03;;;;;;;72.93;51.88;;;18.70;53.60;;;;;;4914788;28;91251;-70
2022/04/27 08:50:29;;;;;;;74.18;52.13;;;18.80;53.70;;;;;;4926926;28;90012;-70
2022/04/27 08:52:55;;;;;;;73.35;52.13;;;18.80;53.60;;;;;;4909786;28;92260;-70
2022/04/27 08:55:21;;;;;;;71.03;52.15;;;18.80;53.40;;;;;;4894978;28;92728;-70
2022/04/27 08:57:48;;;;;;;73.63;52.05;;;18.90;53.40;;;;;;4909985;28;91434;-70
2022/04/27 09:00:19;;;;;;;73.85;51.83;;;18.90;53.40;;;;;;4899652;28;90954;-71
2022/04/27 09:02:46;;;;;;;73.22;51.55;;;18.90;53.40;;;;;;4905016;28;91707;-70
2022/04/27 09:05:20;;;;;;;72.47;52.05;;;19.00;53.10;;;;;;4901785;28;90374;-71
2022/04/27 09:07:46;;;;;;;72.97;51.85;;;19.00;53.00;;;;;;4908476;28;90059;-70
2022/04/27 09:10:17;;;;;;;75.78;51.63;;;19.00;52.90;;;;;;4901092;28;89244;-70
2022/04/27 09:12:54;;;;;;;74.43;52.03;;;19.00;52.90;;;;;;4907074;28;90720;-70
2022/04/27 09:15:22;;;;;;;73.35;51.58;;;19.10;52.90;;;;;;4908040;28;91777;-68
2022/04/27 09:20:46;;;;;;;74.75;51.53;;;19.20;53.10;;;;;;4904004;28;91633;-69
2022/04/27 09:23:40;;;;;;;72.03;51.50;;;19.20;53.10;;;;;;4917218;28;91969;-69
2022/04/27 09:26:14;;;;;;;76.55;51.83;;;19.20;52.90;;;;;;4906671;28;91525;-69
2022/04/27 09:28:40;;;;;;;74.93;51.92;;;19.30;52.90;;;;;;4920208;28;92156;-70
2022/04/27 09:31:05;;;;;;;75.35;51.67;;;19.30;52.70;;;;;;4910900;28;90543;-70
2022/04/27 09:33:34;;;;;;;72.82;51.80;;;19.40;52.80;;;;;;4920101;28;90683;-69
2022/04/27 09:36:00;;;;;;;72.95;51.63;;;19.40;52.70;;;;;;4921408;28;89922;-70
2022/04/27 09:38:26;;;;;;;73.65;52.00;;;19.40;52.90;;;;;;4909655;28;91290;-70
2022/04/27 09:40:58;;;;;;;73.50;51.75;;;19.40;53.70;;;;;;4904651;28;90630;-69
2022/04/27 09:43:46;;;;;;;75.90;51.72;;;19.50;52.70;;;;;;4895424;28;94419;-70
2022/04/27 09:46:22;;;;;;;75.15;51.85;;;19.50;52.70;;;;;;4901353;28;92289;-70
2022/04/27 09:49:14;;;;;;;73.07;51.35;;;19.50;52.30;;;;;;4910288;28;89478;-70
2022/04/27 09:51:47;;;;;;;;;;;19.60;52.30;;;;;;4903983;28;92357;-70
2022/04/27 09:54:24;;;;;;;70.85;51.28;;;19.60;52.10;;;;;;4911004;28;89704;-72
2022/04/27 09:57:00;;;;;;;72.18;51.88;;;19.60;52.20;;;;;;4908887;28;93029;-71
2022/04/27 09:59:29;;;;;;;70.60;51.50;;;19.60;52.30;;;;;;4898615;28;90264;-71
2022/04/27 10:02:04;;;;;;;73.13;51.60;;;19.70;52.30;;;;;;4914561;28;95881;-71
2022/04/27 10:04:29;;;;;;;72.50;51.65;;;19.70;52.10;;;;;;4899782;28;91063;-70
2022/04/27 10:07:00;;;;;;;74.78;52.00;;;19.70;52.10;;;;;;4891593;28;91025;-72
2022/04/27 10:09:30;;;;;;;74.20;51.85;;;19.70;52.00;;;;;;4893981;28;92244;-71
2022/04/27 10:11:58;;;;;;;73.05;51.78;;;19.80;52.10;;;;;;4902034;28;95295;-69
2022/04/27 10:14:26;;;;;;;76.50;51.70;;;19.80;51.70;;;;;;4901780;28;91139;-70
2022/04/27 10:16:53;;;;;;;72.38;51.42;;;19.80;51.60;;;;;;4900516;28;92602;-70
2022/04/27 10:19:19;;;;;;;71.47;51.70;;;19.80;51.80;;;;;;4905351;28;90750;-71
2022/04/27 10:21:56;;;;;;;71.18;51.40;;;19.90;51.40;;;;;;4891256;28;90603;-69
2022/04/27 10:24:34;;;;;;;73.05;51.55;;;19.90;51.50;;;;;;4904831;28;91219;-70
2022/04/27 10:27:34;;;;;;;72.45;52.05;;;20.00;51.50;;;;;;4897831;28;91594;-71
2022/04/27 10:30:02;;;;;;;71.60;51.78;;;20.00;52.00;;;;;;4899574;28;94928;-71
2022/04/27 10:32:48;;;;;;;73.38;52.05;;;20.00;51.00;;;;;;4901825;28;90616;-71
2022/04/27 10:35:33;;;;;;;71.30;51.97;;;20.10;51.30;;;;;;4899134;28;92960;-71
2022/04/27 10:38:05;;;;;;;71.72;52.17;;;20.10;51.30;;;;;;4893129;28;94660;-72
2022/04/27 10:40:40;;;;;;;72.72;52.05;;;20.10;51.10;;;;;;4902383;28;91384;-72
2022/04/27 10:43:11;;;;;;;75.72;52.00;;;20.10;51.20;;;;;;4893550;28;91276;-71
2022/04/27 10:45:41;;;;;;;77.68;52.08;;;20.10;50.70;;;;;;4884859;28;92428;-74
2022/04/27 10:48:17;;;;;;;70.72;52.05;;;20.10;50.60;;;;;;4902806;28;90936;-71
2022/04/27 10:51:01;;;;;;;73.45;51.83;;;20.10;50.90;;;;;;4902693;28;92173;-72
2022/04/27 10:53:29;;;;;;;71.55;51.78;;;20.10;50.30;;;;;;4915610;28;95150;-72
2022/04/27 10:55:57;;;;;;;71.63;52.15;;;20.10;51.00;;;;;;4890205;28;90864;-72
2022/04/27 10:58:30;;;;;;;75.35;52.05;;;20.20;51.30;;;;;;4890000;28;92735;-73
2022/04/27 11:00:58;;;;;;;78.32;52.33;;;20.20;51.20;;;;;;4892496;28;97382;-72
2022/04/27 11:03:38;;;;;;;71.90;52.47;;;20.20;51.10;;;;;;4891215;28;94656;-71
2022/04/27 11:06:12;;;;;;;75.35;52.33;;;20.30;51.00;;;;;;4890632;28;91087;-69
2022/04/27 11:09:02;;;;;;;73.88;52.25;;;20.30;51.10;;;;;;4896980;28;90055;-71
2022/04/27 11:11:28;;;;;;;78.03;52.58;;;20.30;51.30;;;;;;4891917;28;92912;-70
2022/04/27 11:14:03;;;;;;;73.75;52.55;;;20.30;51.40;;;;;;4900655;28;90519;-72
2022/04/27 11:16:28;;;;;;;78.13;52.65;;;20.30;51.50;;;;;;4897970;28;89836;-70
2022/04/27 11:18:59;;;;;;;77.55;52.58;;;20.40;51.60;;;;;;4905918;28;92933;-71
2022/04/27 11:21:29;;;;;;;80.35;52.65;;;20.40;51.70;;;;;;4891958;28;91147;-73
2022/04/27 11:23:57;;;;;;;78.30;52.93;;;20.40;51.70;;;;;;4884808;28;90733;-71
2022/04/27 11:26:22;;;;;;;77.65;52.63;;;20.40;51.70;;;;;;4899812;28;93340;-72
2022/04/27 11:28:49;;;;;;;76.10;53.33;;;20.40;51.70;;;;;;4893370;28;90694;-70
2022/04/27 11:31:16;;;;;;;78.75;53.25;;;20.50;52.70;;;;;;4907149;28;92872;-70
2022/04/27 11:33:42;;;;;;;79.15;53.63;;;20.50;53.00;;;;;;4894772;28;92456;-70
2022/04/27 11:36:21;;;;;;;76.80;53.28;;;20.50;52.50;;;;;;4893907;28;92383;-70
2022/04/27 11:38:47;;;;;;;76.90;53.15;;;20.60;51.60;;;;;;4894161;28;92436;-71
2022/04/27 11:41:14;;;;;;;80.18;54.22;;;20.50;53.40;;;;;;4901462;28;90034;-71
2022/04/27 11:43:40;;;;;;;78.63;53.92;;;20.60;52.40;;;;;;4897470;28;89678;-72
2022/04/27 11:46:09;;;;;;;82.18;53.97;;;20.60;52.20;;;;;;4899581;28;89980;-71
2022/04/27 11:48:35;;;;;;;75.68;53.78;;;20.50;51.80;;;;;;4905095;28;90363;-71
2022/04/27 11:51:02;;;;;;;78.32;53.95;;;20.50;51.70;;;;;;4907326;28;93467;-71
2022/04/27 11:53:28;;;;;;;82.47;54.20;;;20.50;51.60;;;;;;4899125;28;90901;-71
2022/04/27 11:55:55;;;;;;;82.82;54.00;;;20.40;51.60;;;;;;4897318;28;90698;-72
2022/04/27 11:58:28;;;;;;;79.45;53.92;;;20.40;51.80;;;;;;4902653;28;92380;-71
2022/04/27 12:00:55;;;;;;;74.47;53.45;;;20.50;52.10;;;;;;4892151;28;91857;-71
2022/04/27 12:03:20;;;;;;;83.15;54.38;;;20.60;53.30;;;;;;4890510;28;96072;-72
2022/04/27 12:05:50;;;;;;;77.05;53.95;;;20.60;52.10;;;;;;4901198;28;91519;-71
2022/04/27 12:08:20;;;;;;;74.97;53.55;;;20.60;53.10;;;;;;4891262;28;93396;-71
2022/04/27 12:10:46;;;;;;;80.73;53.80;;;20.60;52.30;;;;;;4887865;28;90670;-71
2022/04/27 12:13:14;;;;;;;77.82;53.85;;;20.70;52.70;;;;;;4903246;28;91329;-72
2022/04/27 12:15:42;;;;;;;77.40;53.65;;;20.70;52.30;;;;;;4883305;28;92708;-71
2022/04/27 12:18:16;;;;;;;82.25;54.20;;;20.70;52.30;;;;;;4900669;28;91948;-72
2022/04/27 12:20:43;;;;;;;78.72;54.05;;;20.70;52.10;;;;;;4903211;28;90217;-70
2022/04/27 12:23:43;;;;;;;78.35;53.58;;;20.70;52.30;;;;;;4913837;28;89607;-71
2022/04/27 12:26:09;;;;;;;79.68;53.72;;;20.80;52.20;;;;;;4909342;28;89922;-71
2022/04/27 12:28:49;;;;;;;76.82;53.78;;;20.80;52.10;;;;;;4897726;28;90279;-72
2022/04/27 12:31:16;;;;;;;80.07;54.05;;;20.80;52.00;;;;;;4901388;28;93668;-70
2022/04/27 12:33:44;;;;;;;83.53;53.55;;;20.80;52.10;;;;;;4912673;28;91140;-71
2022/04/27 12:39:00;;;;;;;78.00;53.63;;;20.70;52.20;;;;;;4903206;28;97555;-71
2022/04/27 12:41:30;;;;;;;77.68;53.63;;;20.70;52.30;;;;;;4897151;28;91342;-72
2022/04/27 12:44:07;;;;;;;77.50;54.00;;;20.70;52.20;;;;;;4912988;28;89868;-72
2022/04/27 12:46:34;;;;;;;77.70;53.70;;;20.80;52.20;;;;;;4911766;28;92289;-70
2022/04/27 12:49:04;;;;;;;77.97;53.63;;;20.80;52.30;;;;;;4902438;28;90329;-71
2022/04/27 12:51:32;;;;;;;76.53;53.20;;;20.70;52.10;;;;;;4900193;28;90813;-71
2022/04/27 12:53:58;;;;;;;76.80;54.25;;;20.70;51.70;;;;;;4917403;28;89885;-73